createdAt,value
2023-04-01T00:00:50.884Z,8.60
2023-04-01T00:03:18.895Z,8.20
2023-04-01T00:05:47.325Z,12.03
2023-04-01T00:08:17.682Z,8.57
2023-04-01T00:10:46.330Z,10.37
2023-04-01T00:13:14.659Z,8.10
2023-04-01T00:15:42.598Z,8.30
2023-04-01T00:18:10.658Z,13.87
2023-04-01T00:20:38.934Z,10.63
2023-04-01T00:23:07.010Z,13.17
2023-04-01T00:25:36.213Z,10.23
2023-04-01T00:28:04.145Z,14.40
2023-04-01T00:30:32.234Z,11.60
2023-04-01T00:33:00.142Z,11.53
2023-04-01T00:35:28.392Z,16.77
2023-04-01T00:37:56.225Z,15.10
2023-04-01T00:40:29.626Z,18.20
2023-04-01T00:42:59.182Z,16.80
2023-04-01T00:45:34.128Z,17.93
2023-04-01T00:48:08.037Z,20.07
2023-04-01T00:50:37.674Z,16.63
2023-04-01T00:53:07.422Z,15.70
2023-04-01T00:55:39.934Z,13.23
2023-04-01T00:58:14.733Z,18.03
2023-04-01T01:00:42.808Z,20.73
2023-04-01T01:03:10.963Z,16.13
2023-04-01T01:05:56.576Z,19.67
2023-04-01T01:08:37.676Z,18.50
2023-04-01T01:11:10.395Z,19.70
2023-04-01T01:13:46.770Z,12.83
2023-04-01T01:16:22.347Z,18.07
2023-04-01T01:18:55.956Z,17.53
2023-04-01T01:21:40.560Z,17.13
2023-04-01T01:24:38.597Z,21.20
2023-04-01T01:27:08.227Z,18.20
2023-04-01T01:29:56.642Z,19.50
2023-04-01T01:32:57.154Z,14.37
2023-04-01T01:35:30.412Z,15.10
2023-04-01T01:38:02.943Z,16.07
2023-04-01T01:40:33.887Z,16.30
2023-04-01T01:43:06.220Z,11.27
2023-04-01T01:45:36.501Z,8.97
2023-04-01T01:48:06.997Z,9.87
2023-04-01T01:50:37.316Z,7.37
2023-04-01T01:53:06.991Z,8.50
2023-04-01T01:55:37.062Z,6.90
2023-04-01T01:58:10.721Z,9.97
2023-04-01T02:00:38.938Z,9.67
2023-04-01T02:03:07.685Z,6.60
2023-04-01T02:05:37.914Z,5.90
2023-04-01T02:08:10.081Z,8.70
2023-04-01T02:10:41.762Z,6.23
2023-04-01T02:13:17.978Z,7.13
2023-04-01T02:15:49.576Z,7.83
2023-04-01T02:18:19.412Z,8.27
2023-04-01T02:20:48.626Z,8.20
2023-04-01T02:23:17.581Z,5.83
2023-04-01T02:25:46.812Z,8.20
2023-04-01T02:28:17.530Z,6.83
2023-04-01T02:30:46.609Z,8.23
2023-04-01T02:33:14.934Z,9.50
2023-04-01T02:35:42.884Z,5.77
2023-04-01T02:38:12.142Z,5.70
2023-04-01T02:40:45.213Z,7.17
2023-04-01T02:43:13.047Z,5.63
2023-04-01T02:45:40.932Z,4.80
2023-04-01T02:48:08.902Z,5.73
2023-04-01T02:50:36.734Z,7.70
2023-04-01T02:53:07.102Z,5.83
2023-04-01T02:55:36.565Z,4.13
2023-04-01T02:58:04.509Z,4.17
2023-04-01T03:00:32.734Z,5.60
2023-04-01T03:03:01.341Z,5.93
2023-04-01T03:05:29.600Z,4.53
2023-04-01T03:07:58.124Z,5.70
2023-04-01T03:10:26.028Z,6.50
2023-04-01T03:12:55.531Z,2.97
2023-04-01T03:15:23.489Z,4.93
2023-04-01T03:17:52.363Z,4.53
2023-04-01T03:20:20.386Z,3.90
2023-04-01T03:22:48.331Z,4.23
2023-04-01T03:25:16.355Z,4.00
2023-04-01T03:27:44.202Z,4.47
2023-04-01T03:30:13.803Z,4.83
2023-04-01T03:32:41.746Z,3.07
2023-04-01T03:35:11.189Z,4.10
2023-04-01T03:37:39.329Z,4.73
2023-04-01T03:40:08.342Z,4.30
2023-04-01T03:42:36.732Z,4.47
2023-04-01T03:45:05.685Z,3.17
2023-04-01T03:47:34.932Z,3.77
2023-04-01T03:50:03.139Z,4.80
2023-04-01T03:52:31.653Z,3.50
2023-04-01T03:54:59.507Z,3.50
2023-04-01T03:57:27.554Z,3.17
2023-04-01T03:59:55.652Z,3.30
2023-04-01T04:02:23.593Z,3.60
2023-04-01T04:04:52.825Z,3.20
2023-04-01T04:07:20.779Z,4.10
2023-04-01T04:09:48.757Z,5.60
2023-04-01T04:12:16.625Z,4.53
2023-04-01T04:14:44.889Z,3.50
2023-04-01T04:17:17.213Z,4.03
2023-04-01T04:19:45.692Z,3.73
2023-04-01T04:22:14.978Z,3.70
2023-04-01T04:24:42.793Z,4.07
2023-04-01T04:27:10.637Z,3.60
2023-04-01T04:29:38.559Z,3.37
2023-04-01T04:32:07.229Z,3.57
2023-04-01T04:34:35.287Z,3.77
2023-04-01T04:37:03.361Z,3.50
2023-04-01T04:39:32.557Z,3.77
2023-04-01T04:42:00.408Z,4.27
2023-04-01T04:44:28.492Z,4.50
2023-04-01T04:46:58.382Z,4.90
2023-04-01T04:49:26.600Z,5.07
2023-04-01T04:51:54.507Z,4.60
2023-04-01T04:54:22.391Z,5.60
2023-04-01T04:56:53.749Z,5.27
2023-04-01T04:59:21.783Z,5.23
2023-04-01T05:01:49.728Z,4.57
2023-04-01T05:04:18.742Z,4.33
2023-04-01T05:06:46.619Z,3.73
2023-04-01T05:09:14.787Z,3.60
2023-04-01T05:11:42.771Z,3.10
2023-04-01T05:14:15.783Z,2.97
2023-04-01T05:16:43.909Z,2.77
2023-04-01T05:19:12.094Z,2.80
2023-04-01T05:21:39.917Z,2.80
2023-04-01T05:24:10.663Z,3.33
2023-04-01T05:26:38.791Z,3.30
2023-04-01T05:29:07.051Z,3.87
2023-04-01T05:31:36.223Z,3.53
2023-04-01T05:34:04.291Z,4.37
2023-04-01T05:36:32.454Z,4.27
2023-04-01T05:39:00.375Z,4.57
2023-04-01T05:41:28.398Z,4.67
2023-04-01T05:43:56.820Z,3.50
2023-04-01T05:46:24.751Z,4.53
2023-04-01T05:48:53.997Z,4.77
2023-04-01T05:51:21.831Z,4.50
2023-04-01T05:53:49.689Z,4.20
2023-04-01T05:56:17.817Z,4.03
2023-04-01T05:58:48.653Z,3.90
2023-04-01T06:01:16.785Z,3.53
2023-04-01T06:03:45.258Z,3.17
2023-04-01T06:06:16.911Z,3.93
2023-04-01T06:08:45.395Z,4.07
2023-04-01T06:11:25.097Z,4.17
2023-04-01T06:14:08.557Z,4.00
2023-04-01T06:16:46.296Z,3.87
2023-04-01T06:19:31.751Z,3.83
2023-04-01T06:22:39.882Z,3.73
2023-04-01T06:25:32.891Z,3.40
2023-04-01T06:28:37.229Z,4.13
2023-04-01T06:31:12.397Z,3.63
2023-04-01T06:33:52.643Z,4.27
2023-04-01T06:36:38.526Z,5.93
2023-04-01T06:39:57.055Z,4.87
2023-04-01T06:42:51.650Z,3.80
2023-04-01T06:45:38.306Z,2.80
2023-04-01T06:48:23.475Z,2.67
2023-04-01T06:50:59.022Z,3.00
2023-04-01T06:53:35.295Z,3.60
2023-04-01T06:56:08.875Z,2.97
2023-04-01T06:58:41.810Z,2.77
2023-04-01T07:01:14.920Z,2.53
2023-04-01T07:03:46.572Z,2.00
2023-04-01T07:06:30.773Z,1.90
2023-04-01T07:09:05.491Z,1.73
2023-04-01T07:11:37.733Z,2.20
2023-04-01T07:14:13.160Z,2.10
2023-04-01T07:16:44.955Z,2.13
2023-04-01T07:19:18.617Z,2.43
2023-04-01T07:21:49.862Z,2.87
2023-04-01T07:24:29.612Z,3.30
2023-04-01T07:26:59.714Z,3.90
2023-04-01T07:29:28.475Z,3.77
2023-04-01T07:32:14.085Z,3.40
2023-04-01T07:34:52.533Z,2.43
2023-04-01T07:37:28.931Z,2.83
2023-04-01T07:40:07.129Z,2.83
2023-04-01T07:42:50.076Z,2.60
2023-04-01T07:45:26.554Z,2.33
2023-04-01T07:48:13.202Z,2.10
2023-04-01T07:50:47.051Z,2.60
2023-04-01T07:53:21.944Z,2.80
2023-04-01T07:55:57.434Z,2.20
2023-04-01T07:58:36.979Z,2.97
2023-04-01T08:01:13.364Z,2.80
2023-04-01T08:03:59.977Z,2.93
2023-04-01T08:06:34.301Z,3.40
2023-04-01T08:09:07.910Z,3.50
2023-04-01T08:11:49.250Z,5.47
2023-04-01T08:14:26.713Z,3.80
2023-04-01T08:17:03.508Z,3.93
2023-04-01T08:19:43.363Z,3.93
2023-04-01T08:22:18.734Z,4.57
2023-04-01T08:24:48.636Z,3.80
2023-04-01T08:27:23.771Z,3.53
2023-04-01T08:29:59.254Z,3.43
2023-04-01T08:32:30.799Z,4.20
2023-04-01T08:35:10.470Z,3.63
2023-04-01T08:37:42.588Z,3.90
2023-04-01T08:40:35.828Z,3.63
2023-04-01T08:43:14.328Z,4.03
2023-04-01T08:46:08.203Z,5.03
2023-04-01T08:48:55.314Z,3.97
2023-04-01T08:51:44.827Z,3.63
2023-04-01T08:54:51.058Z,3.97
2023-04-01T08:57:28.243Z,3.90
2023-04-01T09:00:04.444Z,3.67
2023-04-01T09:02:57.873Z,4.73
2023-04-01T09:05:39.123Z,3.30
2023-04-01T09:08:25.635Z,3.77
2023-04-01T09:11:07.801Z,3.67
2023-04-01T09:13:57.070Z,3.77
2023-04-01T09:16:49.456Z,5.30
2023-04-01T09:19:30.828Z,3.97
2023-04-01T09:22:16.132Z,4.70
2023-04-01T09:25:09.574Z,4.53
2023-04-01T09:27:45.923Z,4.95
2023-04-01T09:30:51.778Z,4.30
2023-04-01T09:33:46.914Z,3.47
2023-04-01T09:36:28.842Z,3.83
2023-04-01T09:39:01.433Z,3.80
2023-04-01T09:41:34.902Z,2.65
2023-04-01T09:49:50.666Z,2.92
2023-04-01T09:52:31.860Z,1.88
2023-04-01T09:55:24.409Z,2.75
2023-04-01T09:58:43.541Z,2.78
2023-04-01T10:01:36.546Z,2.30
2023-04-01T10:04:22.206Z,2.72
2023-04-01T10:07:19.915Z,3.15
2023-04-01T10:10:28.231Z,4.63
2023-04-01T10:13:41.380Z,4.15
2023-04-01T10:16:37.231Z,4.35
2023-04-01T10:19:23.870Z,4.63
2023-04-01T10:22:31.869Z,4.88
2023-04-01T10:25:21.611Z,4.88
2023-04-01T10:28:07.521Z,5.68
2023-04-01T10:31:06.393Z,5.80
2023-04-01T10:34:04.075Z,5.22
2023-04-01T10:36:54.241Z,4.65
2023-04-01T10:39:50.370Z,4.32
2023-04-01T10:42:38.554Z,4.50
2023-04-01T10:45:48.179Z,4.53
2023-04-01T10:49:09.425Z,4.85
2023-04-01T10:52:09.054Z,4.65
2023-04-01T10:54:48.340Z,5.05
2023-04-01T10:57:44.636Z,4.35
2023-04-01T11:00:51.002Z,5.45
2023-04-01T11:03:48.935Z,5.38
2023-04-01T11:06:47.925Z,4.63
2023-04-01T11:09:52.378Z,3.97
2023-04-01T11:13:01.911Z,4.13
2023-04-01T11:16:02.905Z,3.60
2023-04-01T11:19:05.616Z,3.70
2023-04-01T11:21:57.972Z,3.30
2023-04-01T11:24:54.031Z,2.28
2023-04-01T11:27:39.780Z,2.03
2023-04-01T11:30:40.525Z,1.98
2023-04-01T11:33:20.069Z,1.67
2023-04-01T11:36:11.562Z,1.75
2023-04-01T11:38:59.498Z,2.30
2023-04-01T11:41:36.825Z,1.77
2023-04-01T11:44:19.665Z,1.92
2023-04-01T11:47:02.680Z,1.80
2023-04-01T11:49:49.687Z,2.13
2023-04-01T11:52:34.480Z,2.00
2023-04-01T11:55:21.730Z,2.20
2023-04-01T11:58:12.321Z,2.95
2023-04-01T12:01:06.249Z,4.25
2023-04-01T12:03:53.414Z,4.28
2023-04-01T12:06:27.871Z,1.63
2023-04-01T12:09:05.506Z,1.30
2023-04-01T12:11:41.441Z,1.20
2023-04-01T12:14:21.412Z,1.98
2023-04-01T12:17:07.112Z,1.73
2023-04-01T12:19:46.692Z,1.70
2023-04-01T12:22:36.320Z,2.00
2023-04-01T12:25:23.146Z,2.80
2023-04-01T12:28:02.711Z,3.78
2023-04-01T12:30:44.524Z,5.15
2023-04-01T12:33:38.014Z,4.10
2023-04-01T12:36:20.397Z,4.90
2023-04-01T12:39:02.818Z,4.32
2023-04-01T12:41:40.611Z,6.30
2023-04-01T12:44:34.932Z,5.35
2023-04-01T12:47:33.970Z,6.13
2023-04-01T12:50:25.767Z,5.75
2023-04-01T12:53:10.670Z,6.60
2023-04-01T12:55:41.528Z,6.25
2023-04-01T12:58:42.665Z,7.15
2023-04-01T13:01:54.373Z,8.98
2023-04-01T13:04:48.397Z,9.13
2023-04-01T13:07:44.612Z,7.65
2023-04-01T13:10:22.542Z,8.27
2023-04-01T13:13:11.280Z,8.50
2023-04-01T13:15:46.370Z,8.00
2023-04-01T13:18:24.632Z,8.93
2023-04-01T13:21:06.956Z,8.63
2023-04-01T13:23:56.961Z,7.93
2023-04-01T13:26:29.860Z,7.38
2023-04-01T13:29:04.782Z,7.78
2023-04-01T13:31:47.055Z,8.23
2023-04-01T13:34:26.737Z,7.55
2023-04-01T13:37:07.665Z,6.47
2023-04-01T13:39:59.233Z,5.43
2023-04-01T13:42:29.690Z,4.63
2023-04-01T13:45:03.458Z,4.30
2023-04-01T13:48:12.878Z,4.60
2023-04-01T13:51:18.068Z,4.63
2023-04-01T13:54:12.674Z,4.07
2023-04-01T13:56:50.933Z,4.13
2023-04-01T13:59:56.555Z,4.43
2023-04-01T14:02:48.700Z,2.88
2023-04-01T14:05:49.162Z,3.03
2023-04-01T14:08:28.806Z,2.90
2023-04-01T14:11:12.680Z,3.72
2023-04-01T14:13:49.199Z,3.15
2023-04-01T14:16:46.476Z,3.00
2023-04-01T14:19:33.273Z,3.10
2023-04-01T14:22:15.693Z,3.87
2023-04-01T14:25:13.508Z,4.45
2023-04-01T14:27:57.581Z,4.60
2023-04-01T14:30:45.674Z,4.07
2023-04-01T14:33:27.324Z,4.35
2023-04-01T14:36:10.798Z,5.25
2023-04-01T14:38:50.330Z,4.55
2023-04-01T14:41:27.354Z,4.00
2023-04-01T14:44:25.830Z,4.17
2023-04-01T14:47:24.148Z,4.00
2023-04-01T14:49:55.132Z,4.03
2023-04-01T14:52:29.807Z,3.83
2023-04-01T14:54:59.666Z,4.03
2023-04-01T14:57:30.076Z,4.60
2023-04-01T15:00:11.576Z,4.88
2023-04-01T15:02:50.319Z,4.35
2023-04-01T15:05:29.868Z,3.65
2023-04-01T15:08:22.303Z,4.40
2023-04-01T15:11:01.125Z,4.10
2023-04-01T15:13:57.740Z,3.90
2023-04-01T15:16:33.131Z,4.10
2023-04-01T15:19:13.613Z,4.93
2023-04-01T15:22:03.101Z,5.60
2023-04-01T15:24:45.994Z,5.20
2023-04-01T15:27:43.460Z,4.13
2023-04-01T15:30:38.395Z,4.53
2023-04-01T15:33:33.106Z,3.40
2023-04-01T15:36:12.627Z,3.90
2023-04-01T15:38:46.606Z,4.33
2023-04-01T15:41:18.765Z,4.03
2023-04-01T15:43:49.538Z,3.40
2023-04-01T15:46:32.636Z,3.40
2023-04-01T15:49:21.455Z,2.95
2023-04-01T15:52:04.977Z,3.00
2023-04-01T15:55:06.661Z,3.37
2023-04-01T15:57:45.972Z,3.17
2023-04-01T16:00:27.599Z,2.97
2023-04-01T16:03:24.571Z,2.63
2023-04-01T16:06:12.440Z,3.47
2023-04-01T16:09:05.476Z,3.47
2023-04-01T16:11:42.897Z,2.80
2023-04-01T16:14:23.499Z,2.83
2023-04-01T16:17:04.822Z,3.27
2023-04-01T16:19:53.094Z,2.67
2023-04-01T16:22:27.124Z,3.10
2023-04-01T16:25:01.792Z,2.73
2023-04-01T16:27:37.297Z,4.30
2023-04-01T16:30:28.602Z,3.47
2023-04-01T16:33:00.806Z,3.47
2023-04-01T16:35:41.987Z,3.33
2023-04-01T16:38:20.633Z,3.87
2023-04-01T16:41:02.758Z,3.50
2023-04-01T16:43:37.829Z,3.40
2023-04-01T16:46:30.644Z,3.80
2023-04-01T16:49:06.137Z,3.77
2023-04-01T16:51:43.971Z,3.87
2023-04-01T16:54:20.512Z,4.40
2023-04-01T16:56:52.738Z,3.80
2023-04-01T16:59:27.848Z,3.73
2023-04-01T17:01:58.854Z,3.80
2023-04-01T17:04:36.067Z,3.77
2023-04-01T17:07:18.147Z,4.57
2023-04-01T17:10:03.232Z,4.23
2023-04-01T17:12:40.936Z,4.40
2023-04-01T17:15:19.893Z,4.40
2023-04-01T17:17:56.940Z,4.13
2023-04-01T17:20:38.609Z,4.50
2023-04-01T17:23:16.522Z,3.77
2023-04-01T17:26:07.330Z,5.70
2023-04-01T17:28:46.890Z,3.13
2023-04-01T17:31:28.213Z,3.50
2023-04-01T17:34:15.476Z,3.17
2023-04-01T17:37:03.094Z,3.10
2023-04-01T17:39:46.332Z,3.43
2023-04-01T17:42:18.996Z,3.97
2023-04-01T17:44:54.449Z,3.57
2023-04-01T17:47:38.409Z,3.43
2023-04-01T17:50:30.745Z,3.97
2023-04-01T17:53:16.196Z,3.87
2023-04-01T17:55:55.675Z,3.30
2023-04-01T17:58:31.709Z,3.67
2023-04-01T18:01:14.949Z,4.60
2023-04-01T18:04:10.182Z,3.50
2023-04-01T18:06:44.560Z,3.60
2023-04-01T18:09:24.233Z,4.57
2023-04-01T18:12:01.939Z,3.47
2023-04-01T18:14:56.345Z,4.07
2023-04-01T18:17:27.600Z,3.33
2023-04-01T18:20:11.795Z,3.87
2023-04-01T18:22:44.952Z,3.80
2023-04-01T18:25:23.707Z,3.57
2023-04-01T18:27:55.909Z,4.73
2023-04-01T18:30:32.315Z,3.37
2023-04-01T18:33:05.715Z,3.13
2023-04-01T18:35:49.614Z,3.77
2023-04-01T18:38:25.726Z,3.50
2023-04-01T18:41:09.180Z,4.77
2023-04-01T18:43:44.595Z,4.20
2023-04-01T18:46:21.467Z,3.80
2023-04-01T18:49:01.960Z,4.37
2023-04-01T18:51:41.866Z,4.00
2023-04-01T18:54:15.037Z,4.27
2023-04-01T18:56:45.826Z,4.37
2023-04-01T18:59:21.380Z,4.33
2023-04-01T19:01:59.453Z,4.83
2023-04-01T19:04:34.825Z,4.30
2023-04-01T19:07:04.529Z,4.43
2023-04-01T19:09:34.160Z,4.60
2023-04-01T19:12:26.005Z,4.93
2023-04-01T19:15:04.543Z,4.87
2023-04-01T19:17:50.193Z,3.80
2023-04-01T19:20:25.006Z,4.33
2023-04-01T19:23:14.608Z,3.97
2023-04-01T19:25:48.775Z,3.83
2023-04-01T19:28:32.606Z,4.10
2023-04-01T19:31:04.599Z,4.43
2023-04-01T19:33:49.688Z,3.70
2023-04-01T19:36:25.513Z,5.37
2023-04-01T19:39:03.047Z,4.20
2023-04-01T19:41:41.635Z,4.33
2023-04-01T19:44:24.299Z,4.00
2023-04-01T19:46:57.558Z,3.90
2023-04-01T19:49:55.527Z,3.60
2023-04-01T19:52:33.508Z,3.57
2023-04-01T19:55:09.875Z,3.20
2023-04-01T19:57:48.147Z,3.90
2023-04-01T20:00:23.524Z,3.43
2023-04-01T20:03:07.650Z,3.33
2023-04-01T20:05:51.140Z,3.80
2023-04-01T20:08:26.485Z,3.47
2023-04-01T20:11:04.075Z,3.90
2023-04-01T20:13:47.461Z,5.07
2023-04-01T20:16:16.686Z,4.57
2023-04-01T20:18:52.913Z,4.80
2023-04-01T20:21:36.345Z,4.77
2023-04-01T20:24:15.501Z,4.83
2023-04-01T20:26:47.852Z,4.77
2023-04-01T20:29:41.312Z,6.00
2023-04-01T20:32:28.263Z,5.23
2023-04-01T21:19:41.760Z,8.80
2023-04-01T21:22:24.009Z,6.37
2023-04-01T21:25:13.821Z,5.30
2023-04-01T21:28:01.217Z,6.17
2023-04-01T21:30:46.620Z,6.20
2023-04-01T21:33:32.501Z,5.70
2023-04-01T21:36:11.369Z,5.50
2023-04-01T21:38:50.635Z,5.60
2023-04-01T21:41:49.479Z,5.27
2023-04-01T21:44:50.006Z,5.67
2023-04-01T21:47:59.256Z,5.43
2023-04-01T21:50:55.280Z,5.00
2023-04-01T21:53:57.572Z,5.03
2023-04-01T21:57:01.058Z,4.70
2023-04-01T21:59:54.432Z,4.77
2023-04-01T22:03:15.994Z,5.30
2023-04-01T22:05:58.783Z,5.40
2023-04-01T22:08:41.895Z,6.40
2023-04-01T22:11:22.577Z,6.13
2023-04-01T22:13:56.012Z,5.33
2023-04-01T22:16:29.725Z,5.53
2023-04-01T22:19:06.868Z,6.27
2023-04-01T22:21:43.117Z,5.87
2023-04-01T22:24:18.641Z,5.47
2023-04-01T22:26:51.946Z,5.50
2023-04-01T22:29:26.900Z,5.80
2023-04-01T22:31:59.142Z,6.00
2023-04-01T22:34:38.493Z,5.43
2023-04-01T22:37:14.038Z,6.13
2023-04-01T22:40:04.631Z,6.07
2023-04-01T22:42:44.221Z,5.90
2023-04-01T22:45:45.856Z,5.97
2023-04-01T22:48:22.278Z,5.87
2023-04-01T22:50:57.180Z,6.30
2023-04-01T22:53:38.392Z,6.67
2023-04-01T22:56:11.875Z,6.53
2023-04-01T22:58:44.908Z,6.00
2023-04-01T23:01:18.376Z,6.00
2023-04-01T23:03:50.048Z,6.43
2023-04-01T23:06:22.581Z,5.87
2023-04-01T23:09:14.444Z,5.77
2023-04-01T23:11:48.811Z,7.47
2023-04-01T23:14:37.887Z,6.97
2023-04-01T23:17:27.420Z,6.27
2023-04-01T23:20:00.660Z,6.47
2023-04-01T23:22:33.298Z,7.53
2023-04-01T23:25:15.684Z,5.90
2023-04-01T23:27:49.555Z,6.63
2023-04-01T23:30:59.067Z,7.33
2023-04-01T23:33:31.900Z,6.93
2023-04-01T23:36:06.391Z,7.23
2023-04-01T23:38:36.970Z,6.47
2023-04-01T23:41:06.187Z,7.20
2023-04-01T23:43:38.767Z,7.90
2023-04-01T23:46:09.293Z,7.63
2023-04-01T23:48:41.169Z,7.00
2023-04-01T23:51:16.654Z,6.50
2023-04-01T23:53:47.406Z,7.50
2023-04-01T23:56:18.191Z,7.57
2023-04-01T23:58:50.138Z,7.33
